sensor_id;sensor_type;location;lat;lon;timestamp;temperature;humidity
15879;DHT22;61999;51.514;14.614;2023-08-07T00:00:36;12.30;68.50
15879;DHT22;61999;51.514;14.614;2023-08-07T00:03:04;12.40;68.30
15879;DHT22;61999;51.514;14.614;2023-08-07T00:05:32;12.40;68.10
15879;DHT22;61999;51.514;14.614;2023-08-07T00:08:02;12.40;68.50
15879;DHT22;61999;51.514;14.614;2023-08-07T00:10:31;12.10;68.80
15879;DHT22;61999;51.514;14.614;2023-08-07T00:12:59;12.20;68.50
15879;DHT22;61999;51.514;14.614;2023-08-07T00:15:27;12.20;69.20
15879;DHT22;61999;51.514;14.614;2023-08-07T00:17:55;12.20;68.80
15879;DHT22;61999;51.514;14.614;2023-08-07T00:20:23;12.00;69.70
15879;DHT22;61999;51.514;14.614;2023-08-07T00:22:51;12.20;69.20
15879;DHT22;61999;51.514;14.614;2023-08-07T00:25:21;12.20;69.30
15879;DHT22;61999;51.514;14.614;2023-08-07T00:27:49;12.00;69.90
15879;DHT22;61999;51.514;14.614;2023-08-07T00:30:17;11.90;70.60
15879;DHT22;61999;51.514;14.614;2023-08-07T00:32:45;11.90;70.40
15879;DHT22;61999;51.514;14.614;2023-08-07T00:35:13;11.90;70.70
15879;DHT22;61999;51.514;14.614;2023-08-07T00:37:41;11.80;70.90
15879;DHT22;61999;51.514;14.614;2023-08-07T00:40:10;11.80;71.10
15879;DHT22;61999;51.514;14.614;2023-08-07T00:42:40;11.60;71.60
15879;DHT22;61999;51.514;14.614;2023-08-07T00:45:09;11.40;72.40
15879;DHT22;61999;51.514;14.614;2023-08-07T00:47:37;11.30;72.40
15879;DHT22;61999;51.514;14.614;2023-08-07T00:50:07;11.30;73.00
15879;DHT22;61999;51.514;14.614;2023-08-07T00:52:36;11.70;72.40
15879;DHT22;61999;51.514;14.614;2023-08-07T00:55:05;11.90;71.80
15879;DHT22;61999;51.514;14.614;2023-08-07T00:57:34;11.90;71.20
15879;DHT22;61999;51.514;14.614;2023-08-07T01:00:05;11.70;71.50
15879;DHT22;61999;51.514;14.614;2023-08-07T01:02:34;11.60;71.50
15879;DHT22;61999;51.514;14.614;2023-08-07T01:05:02;11.50;71.80
15879;DHT22;61999;51.514;14.614;2023-08-07T01:07:31;11.50;72.30
15879;DHT22;61999;51.514;14.614;2023-08-07T01:09:59;11.50;72.40
15879;DHT22;61999;51.514;14.614;2023-08-07T01:12:33;11.50;72.50
15879;DHT22;61999;51.514;14.614;2023-08-07T01:15:14;11.50;72.40
15879;DHT22;61999;51.514;14.614;2023-08-07T01:17:46;11.50;72.20
15879;DHT22;61999;51.514;14.614;2023-08-07T01:20:16;11.60;72.50
15879;DHT22;61999;51.514;14.614;2023-08-07T01:22:46;11.60;72.40
15879;DHT22;61999;51.514;14.614;2023-08-07T01:25:14;11.50;72.30
15879;DHT22;61999;51.514;14.614;2023-08-07T01:27:50;11.60;72.50
15879;DHT22;61999;51.514;14.614;2023-08-07T01:30:35;11.70;72.30
15879;DHT22;61999;51.514;14.614;2023-08-07T01:33:10;11.70;71.40
15879;DHT22;61999;51.514;14.614;2023-08-07T01:35:47;11.70;71.30
15879;DHT22;61999;51.514;14.614;2023-08-07T01:38:24;11.80;71.10
15879;DHT22;61999;51.514;14.614;2023-08-07T01:40:54;11.90;70.50
15879;DHT22;61999;51.514;14.614;2023-08-07T01:43:25;11.80;70.40
15879;DHT22;61999;51.514;14.614;2023-08-07T01:45:53;11.80;70.50
15879;DHT22;61999;51.514;14.614;2023-08-07T01:48:21;11.80;70.60
15879;DHT22;61999;51.514;14.614;2023-08-07T01:50:53;11.70;70.60
15879;DHT22;61999;51.514;14.614;2023-08-07T01:53:23;11.70;70.90
15879;DHT22;61999;51.514;14.614;2023-08-07T01:55:51;11.70;71.20
15879;DHT22;61999;51.514;14.614;2023-08-07T01:58:19;11.70;71.10
15879;DHT22;61999;51.514;14.614;2023-08-07T02:00:47;11.70;70.80
15879;DHT22;61999;51.514;14.614;2023-08-07T02:03:15;12.00;69.90
15879;DHT22;61999;51.514;14.614;2023-08-07T02:05:45;12.30;68.40
15879;DHT22;61999;51.514;14.614;2023-08-07T02:08:14;12.20;68.40
15879;DHT22;61999;51.514;14.614;2023-08-07T02:10:43;12.20;68.30
15879;DHT22;61999;51.514;14.614;2023-08-07T02:13:12;12.00;68.90
15879;DHT22;61999;51.514;14.614;2023-08-07T02:15:40;11.90;69.00
15879;DHT22;61999;51.514;14.614;2023-08-07T02:18:08;11.90;69.30
15879;DHT22;61999;51.514;14.614;2023-08-07T02:20:36;11.80;69.50
15879;DHT22;61999;51.514;14.614;2023-08-07T02:23:04;11.80;69.60
15879;DHT22;61999;51.514;14.614;2023-08-07T02:25:32;11.90;69.00
15879;DHT22;61999;51.514;14.614;2023-08-07T02:28:02;11.90;69.10
15879;DHT22;61999;51.514;14.614;2023-08-07T02:30:30;12.00;68.70
15879;DHT22;61999;51.514;14.614;2023-08-07T02:32:58;11.90;68.90
15879;DHT22;61999;51.514;14.614;2023-08-07T02:35:26;12.00;69.40
15879;DHT22;61999;51.514;14.614;2023-08-07T02:37:54;12.00;68.50
15879;DHT22;61999;51.514;14.614;2023-08-07T02:40:23;11.90;68.70
15879;DHT22;61999;51.514;14.614;2023-08-07T02:42:51;11.90;68.80
15879;DHT22;61999;51.514;14.614;2023-08-07T02:45:20;11.90;68.80
15879;DHT22;61999;51.514;14.614;2023-08-07T02:47:48;11.90;68.40
15879;DHT22;61999;51.514;14.614;2023-08-07T02:50:17;12.00;68.30
15879;DHT22;61999;51.514;14.614;2023-08-07T02:52:45;11.80;68.40
15879;DHT22;61999;51.514;14.614;2023-08-07T02:55:13;11.90;68.30
15879;DHT22;61999;51.514;14.614;2023-08-07T02:57:41;12.10;67.50
15879;DHT22;61999;51.514;14.614;2023-08-07T03:00:10;12.10;67.50
15879;DHT22;61999;51.514;14.614;2023-08-07T03:02:40;12.00;67.70
15879;DHT22;61999;51.514;14.614;2023-08-07T03:05:08;12.00;67.60
15879;DHT22;61999;51.514;14.614;2023-08-07T03:07:37;11.80;68.60
15879;DHT22;61999;51.514;14.614;2023-08-07T03:10:06;11.70;68.50
15879;DHT22;61999;51.514;14.614;2023-08-07T03:12:35;11.60;68.70
15879;DHT22;61999;51.514;14.614;2023-08-07T03:15:05;11.60;69.20
15879;DHT22;61999;51.514;14.614;2023-08-07T03:17:34;11.50;69.20
15879;DHT22;61999;51.514;14.614;2023-08-07T03:20:04;11.50;69.40
15879;DHT22;61999;51.514;14.614;2023-08-07T03:22:33;11.40;69.80
15879;DHT22;61999;51.514;14.614;2023-08-07T03:25:02;11.50;70.00
15879;DHT22;61999;51.514;14.614;2023-08-07T03:27:30;11.60;69.70
15879;DHT22;61999;51.514;14.614;2023-08-07T03:29:58;11.90;68.70
15879;DHT22;61999;51.514;14.614;2023-08-07T03:32:26;12.00;68.30
15879;DHT22;61999;51.514;14.614;2023-08-07T03:34:54;12.10;67.80
15879;DHT22;61999;51.514;14.614;2023-08-07T03:37:24;12.00;67.90
15879;DHT22;61999;51.514;14.614;2023-08-07T03:39:52;12.10;67.70
15879;DHT22;61999;51.514;14.614;2023-08-07T03:42:20;12.00;67.90
15879;DHT22;61999;51.514;14.614;2023-08-07T03:44:48;12.30;67.70
15879;DHT22;61999;51.514;14.614;2023-08-07T03:47:16;12.20;67.40
15879;DHT22;61999;51.514;14.614;2023-08-07T03:49:44;12.30;67.10
15879;DHT22;61999;51.514;14.614;2023-08-07T03:52:12;12.60;66.40
15879;DHT22;61999;51.514;14.614;2023-08-07T03:54:42;12.50;66.20
15879;DHT22;61999;51.514;14.614;2023-08-07T03:57:10;12.20;67.20
15879;DHT22;61999;51.514;14.614;2023-08-07T03:59:38;12.70;66.10
15879;DHT22;61999;51.514;14.614;2023-08-07T04:02:06;12.60;65.90
15879;DHT22;61999;51.514;14.614;2023-08-07T04:04:34;12.30;66.60
15879;DHT22;61999;51.514;14.614;2023-08-07T04:07:03;12.10;67.30
15879;DHT22;61999;51.514;14.614;2023-08-07T04:09:31;12.20;67.00
15879;DHT22;61999;51.514;14.614;2023-08-07T04:12:01;12.60;66.20
15879;DHT22;61999;51.514;14.614;2023-08-07T04:14:29;12.60;65.50
15879;DHT22;61999;51.514;14.614;2023-08-07T04:16:57;12.60;65.50
15879;DHT22;61999;51.514;14.614;2023-08-07T04:19:27;12.60;65.70
15879;DHT22;61999;51.514;14.614;2023-08-07T04:21:55;12.40;66.30
15879;DHT22;61999;51.514;14.614;2023-08-07T04:24:23;12.20;66.80
15879;DHT22;61999;51.514;14.614;2023-08-07T04:26:52;11.90;67.10
15879;DHT22;61999;51.514;14.614;2023-08-07T04:29:23;11.60;68.40
15879;DHT22;61999;51.514;14.614;2023-08-07T04:31:51;11.80;68.20
15879;DHT22;61999;51.514;14.614;2023-08-07T04:34:20;11.70;68.40
15879;DHT22;61999;51.514;14.614;2023-08-07T04:36:48;11.60;68.80
15879;DHT22;61999;51.514;14.614;2023-08-07T04:39:17;11.80;68.60
15879;DHT22;61999;51.514;14.614;2023-08-07T04:41:45;12.30;68.00
15879;DHT22;61999;51.514;14.614;2023-08-07T04:44:14;12.20;67.10
15879;DHT22;61999;51.514;14.614;2023-08-07T04:46:43;12.40;66.50
15879;DHT22;61999;51.514;14.614;2023-08-07T04:49:11;12.30;67.00
15879;DHT22;61999;51.514;14.614;2023-08-07T04:51:39;12.10;67.10
15879;DHT22;61999;51.514;14.614;2023-08-07T04:54:07;12.30;67.00
15879;DHT22;61999;51.514;14.614;2023-08-07T04:56:36;12.20;67.30
15879;DHT22;61999;51.514;14.614;2023-08-07T04:59:04;12.20;66.90
15879;DHT22;61999;51.514;14.614;2023-08-07T05:01:32;12.30;66.90
15879;DHT22;61999;51.514;14.614;2023-08-07T05:04:01;12.40;66.40
15879;DHT22;61999;51.514;14.614;2023-08-07T05:06:31;12.30;66.40
15879;DHT22;61999;51.514;14.614;2023-08-07T05:08:59;12.20;66.30
15879;DHT22;61999;51.514;14.614;2023-08-07T05:11:27;12.10;66.70
15879;DHT22;61999;51.514;14.614;2023-08-07T05:13:55;12.20;66.50
15879;DHT22;61999;51.514;14.614;2023-08-07T05:16:23;12.10;66.90
15879;DHT22;61999;51.514;14.614;2023-08-07T05:18:51;11.90;67.00
15879;DHT22;61999;51.514;14.614;2023-08-07T05:21:22;12.00;67.20
15879;DHT22;61999;51.514;14.614;2023-08-07T05:23:50;11.60;67.70
15879;DHT22;61999;51.514;14.614;2023-08-07T05:26:19;11.60;68.50
15879;DHT22;61999;51.514;14.614;2023-08-07T05:28:48;11.80;67.80
15879;DHT22;61999;51.514;14.614;2023-08-07T05:31:16;11.70;68.20
15879;DHT22;61999;51.514;14.614;2023-08-07T05:33:45;11.70;68.20
15879;DHT22;61999;51.514;14.614;2023-08-07T05:36:13;11.80;68.50
15879;DHT22;61999;51.514;14.614;2023-08-07T05:38:42;11.80;68.20
15879;DHT22;61999;51.514;14.614;2023-08-07T05:41:10;11.50;68.90
15879;DHT22;61999;51.514;14.614;2023-08-07T05:43:38;11.50;69.40
15879;DHT22;61999;51.514;14.614;2023-08-07T05:46:06;11.50;69.40
15879;DHT22;61999;51.514;14.614;2023-08-07T05:48:34;11.80;68.40
15879;DHT22;61999;51.514;14.614;2023-08-07T05:51:03;12.00;67.70
15879;DHT22;61999;51.514;14.614;2023-08-07T05:53:31;12.00;67.70
15879;DHT22;61999;51.514;14.614;2023-08-07T05:56:00;12.00;67.70
15879;DHT22;61999;51.514;14.614;2023-08-07T05:58:28;12.00;67.40
15879;DHT22;61999;51.514;14.614;2023-08-07T06:00:57;12.00;67.70
15879;DHT22;61999;51.514;14.614;2023-08-07T06:03:25;12.20;66.80
15879;DHT22;61999;51.514;14.614;2023-08-07T06:05:53;12.40;66.30
15879;DHT22;61999;51.514;14.614;2023-08-07T06:08:21;12.10;67.30
15879;DHT22;61999;51.514;14.614;2023-08-07T06:10:49;12.20;66.90
15879;DHT22;61999;51.514;14.614;2023-08-07T06:13:19;12.00;67.60
15879;DHT22;61999;51.514;14.614;2023-08-07T06:15:52;12.20;67.50
15879;DHT22;61999;51.514;14.614;2023-08-07T06:18:21;12.50;66.10
15879;DHT22;61999;51.514;14.614;2023-08-07T06:20:49;12.80;65.00
15879;DHT22;61999;51.514;14.614;2023-08-07T06:23:17;12.70;65.50
15879;DHT22;61999;51.514;14.614;2023-08-07T06:25:45;12.80;65.50
15879;DHT22;61999;51.514;14.614;2023-08-07T06:28:13;12.60;65.90
15879;DHT22;61999;51.514;14.614;2023-08-07T06:30:42;12.70;65.50
15879;DHT22;61999;51.514;14.614;2023-08-07T06:33:11;12.60;65.80
15879;DHT22;61999;51.514;14.614;2023-08-07T06:35:40;12.60;66.80
15879;DHT22;61999;51.514;14.614;2023-08-07T06:38:09;12.90;65.40
15879;DHT22;61999;51.514;14.614;2023-08-07T06:40:37;12.80;66.20
15879;DHT22;61999;51.514;14.614;2023-08-07T06:43:06;12.90;65.60
15879;DHT22;61999;51.514;14.614;2023-08-07T06:45:34;13.40;63.60
15879;DHT22;61999;51.514;14.614;2023-08-07T06:48:04;13.30;63.80
15879;DHT22;61999;51.514;14.614;2023-08-07T06:50:32;13.40;63.50
15879;DHT22;61999;51.514;14.614;2023-08-07T06:53:00;13.30;63.80
15879;DHT22;61999;51.514;14.614;2023-08-07T06:55:28;13.10;64.40
15879;DHT22;61999;51.514;14.614;2023-08-07T06:57:56;13.10;64.90
15879;DHT22;61999;51.514;14.614;2023-08-07T07:00:24;13.00;64.90
15879;DHT22;61999;51.514;14.614;2023-08-07T07:02:52;13.00;65.50
15879;DHT22;61999;51.514;14.614;2023-08-07T07:05:22;13.20;64.30
15879;DHT22;61999;51.514;14.614;2023-08-07T07:07:50;13.30;63.40
15879;DHT22;61999;51.514;14.614;2023-08-07T07:10:18;13.30;63.10
15879;DHT22;61999;51.514;14.614;2023-08-07T07:12:46;12.80;64.80
15879;DHT22;61999;51.514;14.614;2023-08-07T07:15:15;12.60;65.70
15879;DHT22;61999;51.514;14.614;2023-08-07T07:17:43;12.80;66.10
15879;DHT22;61999;51.514;14.614;2023-08-07T07:20:11;13.00;64.30
15879;DHT22;61999;51.514;14.614;2023-08-07T07:22:41;13.00;63.90
15879;DHT22;61999;51.514;14.614;2023-08-07T07:25:09;13.00;65.20
15879;DHT22;61999;51.514;14.614;2023-08-07T07:27:39;13.20;64.40
15879;DHT22;61999;51.514;14.614;2023-08-07T07:30:08;13.50;63.30
15879;DHT22;61999;51.514;14.614;2023-08-07T07:32:37;13.60;63.00
15879;DHT22;61999;51.514;14.614;2023-08-07T07:35:05;13.50;62.60
15879;DHT22;61999;51.514;14.614;2023-08-07T07:37:34;13.50;63.20
15879;DHT22;61999;51.514;14.614;2023-08-07T07:40:04;13.50;62.20
15879;DHT22;61999;51.514;14.614;2023-08-07T07:42:33;13.50;62.40
15879;DHT22;61999;51.514;14.614;2023-08-07T07:45:02;13.40;62.60
15879;DHT22;61999;51.514;14.614;2023-08-07T07:47:30;13.60;62.50
15879;DHT22;61999;51.514;14.614;2023-08-07T07:50:06;13.70;61.90
15879;DHT22;61999;51.514;14.614;2023-08-07T07:52:35;13.70;62.20
15879;DHT22;61999;51.514;14.614;2023-08-07T07:55:05;13.60;62.30
15879;DHT22;61999;51.514;14.614;2023-08-07T07:57:36;13.80;61.50
15879;DHT22;61999;51.514;14.614;2023-08-07T08:00:05;14.10;59.90
15879;DHT22;61999;51.514;14.614;2023-08-07T08:02:37;14.00;60.40
15879;DHT22;61999;51.514;14.614;2023-08-07T08:05:06;14.00;60.90
15879;DHT22;61999;51.514;14.614;2023-08-07T08:07:36;14.00;61.40
15879;DHT22;61999;51.514;14.614;2023-08-07T08:10:07;14.30;59.50
15879;DHT22;61999;51.514;14.614;2023-08-07T08:12:36;14.10;60.00
15879;DHT22;61999;51.514;14.614;2023-08-07T08:15:05;14.20;60.40
15879;DHT22;61999;51.514;14.614;2023-08-07T08:17:33;14.00;60.00
15879;DHT22;61999;51.514;14.614;2023-08-07T08:20:02;14.00;59.80
15879;DHT22;61999;51.514;14.614;2023-08-07T08:22:30;14.00;59.20
15879;DHT22;61999;51.514;14.614;2023-08-07T08:24:58;14.30;58.20
15879;DHT22;61999;51.514;14.614;2023-08-07T08:27:27;14.30;58.80
15879;DHT22;61999;51.514;14.614;2023-08-07T08:29:55;14.40;57.00
15879;DHT22;61999;51.514;14.614;2023-08-07T08:32:23;14.50;56.30
15879;DHT22;61999;51.514;14.614;2023-08-07T08:34:51;14.20;56.90
15879;DHT22;61999;51.514;14.614;2023-08-07T08:37:20;14.10;57.00
15879;DHT22;61999;51.514;14.614;2023-08-07T08:39:48;14.10;57.40
15879;DHT22;61999;51.514;14.614;2023-08-07T08:42:16;14.20;57.20
15879;DHT22;61999;51.514;14.614;2023-08-07T08:44:52;14.20;57.50
15879;DHT22;61999;51.514;14.614;2023-08-07T08:47:22;14.30;56.80
15879;DHT22;61999;51.514;14.614;2023-08-07T08:50:01;14.50;56.00
15879;DHT22;61999;51.514;14.614;2023-08-07T08:52:35;14.50;55.90
15879;DHT22;61999;51.514;14.614;2023-08-07T08:55:05;14.50;56.30
15879;DHT22;61999;51.514;14.614;2023-08-07T08:57:34;14.90;55.30
15879;DHT22;61999;51.514;14.614;2023-08-07T09:00:06;14.90;56.80
15879;DHT22;61999;51.514;14.614;2023-08-07T09:02:45;15.10;55.10
15879;DHT22;61999;51.514;14.614;2023-08-07T09:05:15;15.50;54.00
15879;DHT22;61999;51.514;14.614;2023-08-07T09:07:44;15.50;54.50
15879;DHT22;61999;51.514;14.614;2023-08-07T09:10:14;15.50;53.80
15879;DHT22;61999;51.514;14.614;2023-08-07T09:12:53;15.30;54.10
15879;DHT22;61999;51.514;14.614;2023-08-07T09:15:26;14.90;55.50
15879;DHT22;61999;51.514;14.614;2023-08-07T09:17:58;14.70;55.60
15879;DHT22;61999;51.514;14.614;2023-08-07T09:20:27;14.20;57.50
15879;DHT22;61999;51.514;14.614;2023-08-07T09:22:56;14.00;57.90
15879;DHT22;61999;51.514;14.614;2023-08-07T09:25:28;14.10;58.10
15879;DHT22;61999;51.514;14.614;2023-08-07T09:27:57;14.10;58.70
15879;DHT22;61999;51.514;14.614;2023-08-07T09:30:28;14.30;58.00
15879;DHT22;61999;51.514;14.614;2023-08-07T09:32:57;14.60;57.10
15879;DHT22;61999;51.514;14.614;2023-08-07T09:35:26;15.00;56.70
15879;DHT22;61999;51.514;14.614;2023-08-07T09:37:56;15.50;56.00
15879;DHT22;61999;51.514;14.614;2023-08-07T09:40:25;15.30;55.80
15879;DHT22;61999;51.514;14.614;2023-08-07T09:42:54;15.20;57.10
15879;DHT22;61999;51.514;14.614;2023-08-07T09:45:23;15.10;55.50
15879;DHT22;61999;51.514;14.614;2023-08-07T09:48:01;14.80;56.10
15879;DHT22;61999;51.514;14.614;2023-08-07T09:50:31;14.60;57.40
15879;DHT22;61999;51.514;14.614;2023-08-07T09:52:59;14.70;56.70
15879;DHT22;61999;51.514;14.614;2023-08-07T09:55:28;15.00;56.50
15879;DHT22;61999;51.514;14.614;2023-08-07T09:57:56;15.50;54.70
15879;DHT22;61999;51.514;14.614;2023-08-07T10:00:24;15.90;52.80
15879;DHT22;61999;51.514;14.614;2023-08-07T10:02:54;15.60;52.50
15879;DHT22;61999;51.514;14.614;2023-08-07T10:05:24;15.60;53.30
15879;DHT22;61999;51.514;14.614;2023-08-07T10:07:52;15.90;53.20
15879;DHT22;61999;51.514;14.614;2023-08-07T10:10:22;16.40;50.70
15879;DHT22;61999;51.514;14.614;2023-08-07T10:12:53;16.90;50.00
15879;DHT22;61999;51.514;14.614;2023-08-07T10:15:23;17.10;49.00
15879;DHT22;61999;51.514;14.614;2023-08-07T10:17:52;17.10;49.10
15879;DHT22;61999;51.514;14.614;2023-08-07T10:20:21;16.90;50.10
15879;DHT22;61999;51.514;14.614;2023-08-07T10:22:52;16.60;50.20
15879;DHT22;61999;51.514;14.614;2023-08-07T10:25:21;15.80;52.50
15879;DHT22;61999;51.514;14.614;2023-08-07T10:27:53;15.70;52.70
15879;DHT22;61999;51.514;14.614;2023-08-07T10:30:25;15.60;54.50
15879;DHT22;61999;51.514;14.614;2023-08-07T10:32:55;15.50;54.10
15879;DHT22;61999;51.514;14.614;2023-08-07T10:35:30;15.30;53.70
15879;DHT22;61999;51.514;14.614;2023-08-07T10:38:05;15.20;54.70
15879;DHT22;61999;51.514;14.614;2023-08-07T10:40:58;15.30;55.50
15879;DHT22;61999;51.514;14.614;2023-08-07T10:43:28;15.50;55.60
15879;DHT22;61999;51.514;14.614;2023-08-07T10:46:03;15.90;55.10
15879;DHT22;61999;51.514;14.614;2023-08-07T10:48:41;16.30;54.50
15879;DHT22;61999;51.514;14.614;2023-08-07T10:51:17;16.90;51.70
15879;DHT22;61999;51.514;14.614;2023-08-07T10:53:47;16.40;52.30
15879;DHT22;61999;51.514;14.614;2023-08-07T10:56:28;16.20;53.30
15879;DHT22;61999;51.514;14.614;2023-08-07T10:58:58;16.50;53.20
15879;DHT22;61999;51.514;14.614;2023-08-07T11:01:39;16.70;54.10
15879;DHT22;61999;51.514;14.614;2023-08-07T11:04:10;17.30;50.40
15879;DHT22;61999;51.514;14.614;2023-08-07T11:06:41;17.80;47.60
15879;DHT22;61999;51.514;14.614;2023-08-07T11:09:11;17.90;48.30
15879;DHT22;61999;51.514;14.614;2023-08-07T11:11:42;18.10;47.30
15879;DHT22;61999;51.514;14.614;2023-08-07T11:14:12;18.20;47.90
15879;DHT22;61999;51.514;14.614;2023-08-07T11:16:42;18.20;48.50
15879;DHT22;61999;51.514;14.614;2023-08-07T11:19:12;18.60;47.30
15879;DHT22;61999;51.514;14.614;2023-08-07T11:21:43;18.80;47.10
15879;DHT22;61999;51.514;14.614;2023-08-07T11:24:13;18.60;47.80
15879;DHT22;61999;51.514;14.614;2023-08-07T11:26:46;18.80;46.00
15879;DHT22;61999;51.514;14.614;2023-08-07T11:29:16;18.30;46.50
15879;DHT22;61999;51.514;14.614;2023-08-07T11:31:45;17.70;47.90
15879;DHT22;61999;51.514;14.614;2023-08-07T11:34:13;17.30;48.80
15879;DHT22;61999;51.514;14.614;2023-08-07T11:36:43;17.10;49.50
15879;DHT22;61999;51.514;14.614;2023-08-07T11:39:11;16.60;51.00
15879;DHT22;61999;51.514;14.614;2023-08-07T11:41:40;16.50;51.30
15879;DHT22;61999;51.514;14.614;2023-08-07T11:44:10;16.70;50.20
15879;DHT22;61999;51.514;14.614;2023-08-07T11:46:38;16.80;49.30
15879;DHT22;61999;51.514;14.614;2023-08-07T11:49:07;16.80;50.10
15879;DHT22;61999;51.514;14.614;2023-08-07T11:51:36;16.60;50.20
15879;DHT22;61999;51.514;14.614;2023-08-07T11:54:06;16.40;51.00
15879;DHT22;61999;51.514;14.614;2023-08-07T11:56:34;16.50;52.00
15879;DHT22;61999;51.514;14.614;2023-08-07T11:59:02;16.90;50.80
15879;DHT22;61999;51.514;14.614;2023-08-07T12:01:38;17.00;49.90
15879;DHT22;61999;51.514;14.614;2023-08-07T12:04:11;16.70;50.70
15879;DHT22;61999;51.514;14.614;2023-08-07T12:06:52;16.60;50.80
15879;DHT22;61999;51.514;14.614;2023-08-07T12:09:23;16.60;51.00
15879;DHT22;61999;51.514;14.614;2023-08-07T12:11:56;16.70;50.90
15879;DHT22;61999;51.514;14.614;2023-08-07T12:14:28;16.60;51.00
15879;DHT22;61999;51.514;14.614;2023-08-07T12:16:57;16.30;51.20
15879;DHT22;61999;51.514;14.614;2023-08-07T12:19:35;15.70;53.50
15879;DHT22;61999;51.514;14.614;2023-08-07T12:22:07;15.50;53.80
15879;DHT22;61999;51.514;14.614;2023-08-07T12:24:37;15.30;54.10
15879;DHT22;61999;51.514;14.614;2023-08-07T12:27:06;15.20;55.70
15879;DHT22;61999;51.514;14.614;2023-08-07T12:29:34;15.30;55.30
15879;DHT22;61999;51.514;14.614;2023-08-07T12:32:04;15.20;55.40
15879;DHT22;61999;51.514;14.614;2023-08-07T12:34:33;15.30;54.90
15879;DHT22;61999;51.514;14.614;2023-08-07T12:37:02;15.30;55.00
15879;DHT22;61999;51.514;14.614;2023-08-07T12:39:30;15.20;54.60
15879;DHT22;61999;51.514;14.614;2023-08-07T12:42:03;15.20;54.60
15879;DHT22;61999;51.514;14.614;2023-08-07T12:44:34;15.30;55.30
15879;DHT22;61999;51.514;14.614;2023-08-07T12:47:05;15.60;54.90
15879;DHT22;61999;51.514;14.614;2023-08-07T12:49:44;15.70;53.70
15879;DHT22;61999;51.514;14.614;2023-08-07T12:52:14;15.70;53.20
15879;DHT22;61999;51.514;14.614;2023-08-07T12:54:42;16.00;52.30
15879;DHT22;61999;51.514;14.614;2023-08-07T12:57:12;16.20;52.00
15879;DHT22;61999;51.514;14.614;2023-08-07T12:59:41;16.10;52.90
15879;DHT22;61999;51.514;14.614;2023-08-07T13:02:10;16.40;51.90
15879;DHT22;61999;51.514;14.614;2023-08-07T13:04:38;16.50;51.20
15879;DHT22;61999;51.514;14.614;2023-08-07T13:07:06;16.40;51.30
15879;DHT22;61999;51.514;14.614;2023-08-07T13:09:34;16.00;51.50
15879;DHT22;61999;51.514;14.614;2023-08-07T13:12:03;16.10;51.50
15879;DHT22;61999;51.514;14.614;2023-08-07T13:14:33;16.30;52.00
15879;DHT22;61999;51.514;14.614;2023-08-07T13:17:01;16.60;51.30
15879;DHT22;61999;51.514;14.614;2023-08-07T13:19:29;16.70;49.90
15879;DHT22;61999;51.514;14.614;2023-08-07T13:21:57;16.60;50.80
15879;DHT22;61999;51.514;14.614;2023-08-07T13:24:25;16.60;50.80
15879;DHT22;61999;51.514;14.614;2023-08-07T13:26:57;16.70;50.30
15879;DHT22;61999;51.514;14.614;2023-08-07T13:29:25;16.50;50.30
15879;DHT22;61999;51.514;14.614;2023-08-07T13:31:58;16.00;50.90
15879;DHT22;61999;51.514;14.614;2023-08-07T13:34:26;15.40;53.00
15879;DHT22;61999;51.514;14.614;2023-08-07T13:36:54;15.10;53.60
15879;DHT22;61999;51.514;14.614;2023-08-07T13:39:25;15.20;54.20
15879;DHT22;61999;51.514;14.614;2023-08-07T13:41:54;15.70;53.20
15879;DHT22;61999;51.514;14.614;2023-08-07T13:44:22;15.80;52.60
15879;DHT22;61999;51.514;14.614;2023-08-07T13:46:50;15.80;52.70
15879;DHT22;61999;51.514;14.614;2023-08-07T13:49:20;15.80;52.70
15879;DHT22;61999;51.514;14.614;2023-08-07T13:51:49;15.30;53.60
15879;DHT22;61999;51.514;14.614;2023-08-07T13:54:17;14.90;54.20
15879;DHT22;61999;51.514;14.614;2023-08-07T13:56:45;15.10;54.20
15879;DHT22;61999;51.514;14.614;2023-08-07T13:59:13;15.20;55.10
15879;DHT22;61999;51.514;14.614;2023-08-07T14:01:42;15.20;59.00
15879;DHT22;61999;51.514;14.614;2023-08-07T14:04:10;14.90;59.40
15879;DHT22;61999;51.514;14.614;2023-08-07T14:06:41;14.20;63.00
15879;DHT22;61999;51.514;14.614;2023-08-07T14:09:10;13.80;63.60
15879;DHT22;61999;51.514;14.614;2023-08-07T14:11:40;13.70;64.40
15879;DHT22;61999;51.514;14.614;2023-08-07T14:14:08;13.60;65.20
15879;DHT22;61999;51.514;14.614;2023-08-07T14:16:36;13.70;66.30
15879;DHT22;61999;51.514;14.614;2023-08-07T14:19:05;13.80;66.90
15879;DHT22;61999;51.514;14.614;2023-08-07T14:21:34;14.30;64.20
15879;DHT22;61999;51.514;14.614;2023-08-07T14:24:04;14.70;61.90
15879;DHT22;61999;51.514;14.614;2023-08-07T14:26:32;14.40;63.20
15879;DHT22;61999;51.514;14.614;2023-08-07T14:29:01;14.40;63.80
15879;DHT22;61999;51.514;14.614;2023-08-07T14:31:29;14.40;63.00
15879;DHT22;61999;51.514;14.614;2023-08-07T14:33:57;14.30;62.60
15879;DHT22;61999;51.514;14.614;2023-08-07T14:36:25;14.30;63.70
15879;DHT22;61999;51.514;14.614;2023-08-07T14:38:53;14.50;62.20
15879;DHT22;61999;51.514;14.614;2023-08-07T14:41:22;14.40;63.20
15879;DHT22;61999;51.514;14.614;2023-08-07T14:43:50;14.40;63.90
15879;DHT22;61999;51.514;14.614;2023-08-07T14:46:20;14.60;62.50
15879;DHT22;61999;51.514;14.614;2023-08-07T14:48:50;14.80;59.20
15879;DHT22;61999;51.514;14.614;2023-08-07T14:51:18;14.60;59.60
15879;DHT22;61999;51.514;14.614;2023-08-07T14:53:46;14.50;59.90
15879;DHT22;61999;51.514;14.614;2023-08-07T14:56:14;14.60;59.40
15879;DHT22;61999;51.514;14.614;2023-08-07T14:58:44;14.80;58.10
15879;DHT22;61999;51.514;14.614;2023-08-07T15:01:12;14.90;58.50
15879;DHT22;61999;51.514;14.614;2023-08-07T15:03:41;14.90;58.10
15879;DHT22;61999;51.514;14.614;2023-08-07T15:06:10;14.90;58.20
15879;DHT22;61999;51.514;14.614;2023-08-07T15:08:38;15.00;57.90
15879;DHT22;61999;51.514;14.614;2023-08-07T15:11:06;15.40;56.80
15879;DHT22;61999;51.514;14.614;2023-08-07T15:13:34;15.50;57.20
15879;DHT22;61999;51.514;14.614;2023-08-07T15:16:03;15.60;54.80
15879;DHT22;61999;51.514;14.614;2023-08-07T15:18:32;15.60;54.50
15879;DHT22;61999;51.514;14.614;2023-08-07T15:21:00;15.60;55.10
15879;DHT22;61999;51.514;14.614;2023-08-07T15:23:29;15.70;54.20
15879;DHT22;61999;51.514;14.614;2023-08-07T15:25:58;15.70;53.90
15879;DHT22;61999;51.514;14.614;2023-08-07T15:28:27;15.50;58.50